Time;durP1;ratioP1;P1;durP2;ratioP2;P2;SDS_P1;SDS_P2;PMS_P1;PMS_P2;Temp;Humidity;BMP_temperature;BMP_pressure;BME280_temperature;BME280_humidity;BME280_pressure;Samples;Min_cycle;Max_cycle;Signal;HPM_P1;HPM_P2
2021/10/21 00:01:25;;;;;;;9.38;6.72;;;12.50;98.40;;;;;;5013572;28;20097;-69
2021/10/21 00:03:50;;;;;;;12.25;6.50;;;12.50;98.50;;;;;;5019712;28;20216;-70
2021/10/21 00:06:16;;;;;;;11.18;6.88;;;12.50;98.40;;;;;;5010716;28;20065;-69
2021/10/21 00:08:42;;;;;;;12.32;6.72;;;12.40;98.40;;;;;;5005917;28;20038;-69
2021/10/21 00:11:09;;;;;;;12.55;6.78;;;12.40;98.50;;;;;;5015131;28;20044;-69
2021/10/21 00:13:35;;;;;;;12.27;6.88;;;12.50;98.50;;;;;;5012843;28;20105;-69
2021/10/21 00:16:01;;;;;;;11.45;6.90;;;12.50;98.40;;;;;;5013111;28;20018;-68
2021/10/21 00:18:27;;;;;;;13.23;6.45;;;12.50;98.40;;;;;;5015218;28;20603;-69
2021/10/21 00:20:53;;;;;;;15.70;6.50;;;12.50;98.40;;;;;;5014977;28;20037;-69
2021/10/21 00:23:18;;;;;;;11.65;6.30;;;12.60;98.20;;;;;;5025127;28;20033;-69
2021/10/21 00:25:44;;;;;;;12.68;6.75;;;12.60;98.10;;;;;;5014338;28;20033;-70
2021/10/21 00:28:12;;;;;;;12.13;5.90;;;12.60;98.00;;;;;;5030972;28;20190;-69
2021/10/21 00:30:38;;;;;;;10.25;5.55;;;12.70;98.00;;;;;;5011842;28;20144;-69
2021/10/21 00:33:03;;;;;;;10.02;6.00;;;12.70;97.70;;;;;;5016241;27;20120;-69
2021/10/21 00:35:29;;;;;;;10.38;5.97;;;12.80;97.50;;;;;;5018506;28;20021;-69
2021/10/21 00:37:55;;;;;;;8.65;5.88;;;12.80;97.50;;;;;;5098894;27;20045;-70
2021/10/21 00:40:22;;;;;;;9.38;5.45;;;12.80;97.30;;;;;;5011720;28;20085;-69
2021/10/21 00:42:48;;;;;;;11.75;5.43;;;12.80;97.20;;;;;;5023477;28;20398;-69
2021/10/21 00:45:14;;;;;;;10.07;5.47;;;12.80;97.40;;;;;;5018700;28;20464;-70
2021/10/21 00:47:39;;;;;;;10.95;5.55;;;12.80;97.20;;;;;;5020295;28;20459;-70
2021/10/21 00:50:05;;;;;;;9.27;5.25;;;12.80;97.20;;;;;;5035382;27;20641;-69
2021/10/21 00:52:32;;;;;;;8.68;4.60;;;12.70;97.30;;;;;;5011450;28;20437;-69
2021/10/21 00:54:57;;;;;;;7.93;5.28;;;12.80;97.30;;;;;;5021768;27;20030;-69
2021/10/21 00:57:24;;;;;;;13.18;5.15;;;12.80;97.30;;;;;;5052076;27;20081;-69
2021/10/21 00:59:51;;;;;;;9.15;5.18;;;12.80;97.20;;;;;;5013986;28;20406;-69
2021/10/21 01:02:16;;;;;;;8.07;4.75;;;12.90;97.10;;;;;;5008415;28;20166;-69
2021/10/21 01:04:42;;;;;;;12.98;4.63;;;12.90;97.00;;;;;;5014847;28;20155;-68
2021/10/21 01:07:09;;;;;;;11.00;4.88;;;13.00;97.10;;;;;;5018477;27;20037;-68
2021/10/21 01:09:37;;;;;;;10.57;4.63;;;13.00;96.90;;;;;;5017216;28;20036;-69
2021/10/21 01:12:04;;;;;;;9.75;4.72;;;13.00;96.90;;;;;;5018884;28;20141;-69
2021/10/21 01:14:30;;;;;;;8.85;4.60;;;13.00;97.30;;;;;;5020446;28;20030;-69
2021/10/21 01:16:56;;;;;;;9.75;4.78;;;12.90;97.40;;;;;;5013735;28;20633;-69
2021/10/21 01:19:24;;;;;;;10.13;4.68;;;12.90;97.80;;;;;;5026274;28;20026;-69
2021/10/21 01:21:52;;;;;;;11.23;5.40;;;12.90;97.80;;;;;;5013703;28;20029;-70
2021/10/21 01:24:19;;;;;;;12.55;4.80;;;12.80;97.90;;;;;;5016503;28;20118;-69
2021/10/21 01:26:49;;;;;;;11.60;5.05;;;12.80;98.10;;;;;;5011633;28;20445;-69
2021/10/21 01:29:16;;;;;;;9.77;5.22;;;12.80;98.20;;;;;;5013968;28;20041;-69
2021/10/21 01:31:42;;;;;;;8.77;4.82;;;12.80;98.30;;;;;;5009412;28;20265;-69
2021/10/21 01:34:10;;;;;;;12.13;5.10;;;12.70;98.30;;;;;;5010438;28;20233;-69
2021/10/21 01:36:37;;;;;;;12.93;5.15;;;12.80;98.50;;;;;;5020294;28;20113;-69
2021/10/21 01:39:06;;;;;;;11.48;5.68;;;12.70;98.50;;;;;;5014561;28;20401;-69
2021/10/21 01:41:32;;;;;;;9.60;5.60;;;12.70;98.60;;;;;;5016546;27;20045;-69
2021/10/21 01:43:58;;;;;;;11.60;5.70;;;12.70;98.60;;;;;;5026391;28;20374;-69
2021/10/21 01:46:24;;;;;;;9.23;5.35;;;12.80;98.80;;;;;;5013675;28;20034;-68
2021/10/21 01:48:50;;;;;;;8.73;5.22;;;12.80;98.80;;;;;;5027969;28;20033;-69
2021/10/21 01:51:15;;;;;;;9.68;5.22;;;12.80;98.90;;;;;;5016253;28;20052;-70
2021/10/21 01:53:41;;;;;;;9.55;5.53;;;12.80;98.90;;;;;;5010623;28;20124;-69
2021/10/21 01:56:07;;;;;;;13.48;5.05;;;12.70;99.00;;;;;;5011761;27;20044;-70
2021/10/21 01:58:33;;;;;;;7.90;4.60;;;12.80;99.10;;;;;;5025084;27;20121;-69
2021/10/21 02:00:59;;;;;;;9.52;4.70;;;12.70;99.10;;;;;;5014190;28;20040;-69
2021/10/21 02:03:25;;;;;;;13.02;5.03;;;12.70;99.20;;;;;;5019234;28;20034;-69
2021/10/21 02:05:50;;;;;;;13.38;5.13;;;12.70;99.40;;;;;;5018693;28;20388;-69
2021/10/21 02:08:16;;;;;;;10.63;5.15;;;12.70;99.50;;;;;;5015923;28;20538;-69
2021/10/21 02:10:42;;;;;;;12.50;5.13;;;12.70;99.60;;;;;;5012378;28;20120;-69
2021/10/21 02:13:08;;;;;;;10.32;5.15;;;12.60;99.70;;;;;;5015198;28;20116;-69
2021/10/21 02:15:34;;;;;;;12.02;5.18;;;12.70;99.80;;;;;;5011780;28;20030;-69
2021/10/21 02:17:59;;;;;;;11.05;4.65;;;12.70;99.80;;;;;;5009555;28;20492;-69
2021/10/21 02:20:26;;;;;;;12.25;4.97;;;12.70;99.90;;;;;;5015518;28;20374;-69
2021/10/21 02:22:51;;;;;;;12.23;5.53;;;12.70;99.90;;;;;;5013250;28;20097;-69
2021/10/21 02:25:18;;;;;;;11.85;5.72;;;12.60;99.90;;;;;;5011468;28;20033;-69
2021/10/21 02:27:44;;;;;;;15.50;5.75;;;12.60;99.90;;;;;;5001648;28;20518;-69
2021/10/21 02:30:12;;;;;;;12.00;5.95;;;12.60;99.90;;;;;;5011092;28;20086;-69
2021/10/21 02:32:39;;;;;;;12.18;5.70;;;12.60;99.90;;;;;;5026374;27;20160;-68
2021/10/21 02:35:07;;;;;;;18.83;6.22;;;12.50;99.90;;;;;;5013992;28;20352;-69
2021/10/21 02:37:34;;;;;;;12.82;6.07;;;12.60;99.90;;;;;;5010346;28;20173;-69
2021/10/21 02:40:00;;;;;;;15.65;6.32;;;12.50;99.90;;;;;;5018521;28;20018;-69
2021/10/21 02:42:25;;;;;;;14.60;6.10;;;12.50;99.90;;;;;;5005865;28;20317;-69
2021/10/21 02:44:51;;;;;;;13.95;6.40;;;12.50;99.90;;;;;;5012411;28;20082;-69
2021/10/21 02:47:17;;;;;;;15.13;6.82;;;12.50;99.90;;;;;;5008081;28;20125;-69
2021/10/21 02:49:43;;;;;;;12.88;6.68;;;12.50;99.90;;;;;;5010835;28;20029;-69
2021/10/21 02:52:09;;;;;;;14.85;6.75;;;12.50;99.90;;;;;;5010017;28;20033;-69
2021/10/21 02:54:35;;;;;;;12.65;7.25;;;12.50;99.90;;;;;;5011580;28;20037;-69
2021/10/21 02:57:01;;;;;;;17.23;8.00;;;12.50;99.90;;;;;;5011730;27;20224;-69
2021/10/21 02:59:26;;;;;;;16.45;7.85;;;12.50;99.90;;;;;;5009299;28;20057;-69
2021/10/21 03:01:52;;;;;;;17.95;8.13;;;12.60;99.90;;;;;;5011744;28;20056;-69
2021/10/21 03:04:18;;;;;;;16.58;7.95;;;12.60;99.90;;;;;;5005984;27;20405;-69
2021/10/21 03:06:43;;;;;;;14.25;7.93;;;12.70;99.90;;;;;;5032174;27;20097;-69
2021/10/21 03:09:09;;;;;;;17.90;8.85;;;12.70;99.90;;;;;;5003406;28;20037;-69
2021/10/21 03:11:34;;;;;;;16.13;8.45;;;12.80;99.90;;;;;;5013898;28;20045;-69
2021/10/21 03:14:00;;;;;;;14.43;8.88;;;12.90;99.90;;;;;;5011277;28;20037;-70
2021/10/21 03:16:29;;;;;;;13.73;8.30;;;12.90;99.90;;;;;;5013930;28;20034;-68
2021/10/21 03:18:56;;;;;;;15.13;9.52;;;13.00;99.90;;;;;;5030988;27;20032;-69
2021/10/21 03:21:22;;;;;;;16.52;9.38;;;13.00;99.90;;;;;;5042785;27;20101;-69
2021/10/21 03:23:47;;;;;;;14.80;8.05;;;13.10;99.90;;;;;;5002174;28;20045;-69
2021/10/21 03:26:13;;;;;;;15.52;9.02;;;13.10;99.80;;;;;;5011733;28;20085;-69
2021/10/21 03:28:39;;;;;;;14.05;7.63;;;13.10;99.70;;;;;;5006900;28;20029;-69
2021/10/21 03:31:05;;;;;;;14.75;8.50;;;13.10;99.60;;;;;;5006418;28;20821;-68
2021/10/21 03:33:31;;;;;;;13.13;8.07;;;13.10;99.50;;;;;;5018586;28;20089;-69
2021/10/21 03:35:57;;;;;;;15.20;7.78;;;13.30;99.20;;;;;;5012042;28;20034;-69
2021/10/21 03:38:23;;;;;;;15.25;8.10;;;13.20;99.00;;;;;;5008052;28;20056;-68
2021/10/21 03:40:49;;;;;;;15.18;8.02;;;13.20;98.70;;;;;;5020109;27;20022;-69
2021/10/21 03:43:14;;;;;;;15.27;7.63;;;13.10;98.70;;;;;;5003139;28;20052;-69
2021/10/21 03:45:40;;;;;;;11.52;6.75;;;13.20;98.90;;;;;;5012045;28;20082;-69
2021/10/21 03:48:06;;;;;;;15.43;7.70;;;13.20;98.90;;;;;;5011935;28;20033;-70
2021/10/21 03:50:32;;;;;;;10.63;6.10;;;13.30;98.90;;;;;;5007302;28;20450;-69
2021/10/21 03:52:57;;;;;;;13.57;6.50;;;13.30;98.60;;;;;;5015437;28;20060;-69
2021/10/21 03:55:23;;;;;;;9.07;5.78;;;13.30;98.60;;;;;;5013410;28;20480;-68
2021/10/21 03:57:49;;;;;;;10.25;5.72;;;13.40;98.40;;;;;;5015226;27;20018;-69
2021/10/21 04:00:15;;;;;;;10.73;5.60;;;13.40;98.30;;;;;;5006573;27;20440;-69
2021/10/21 04:02:41;;;;;;;8.82;4.20;;;13.40;98.20;;;;;;5010213;28;20104;-71
2021/10/21 04:05:08;;;;;;;6.90;2.10;;;13.50;98.40;;;;;;5006521;28;20070;-69
2021/10/21 04:07:34;;;;;;;4.35;1.50;;;12.30;98.20;;;;;;5007896;28;20129;-68
2021/10/21 04:10:00;;;;;;;6.93;1.40;;;11.60;96.90;;;;;;5014167;27;20433;-69
2021/10/21 04:12:26;;;;;;;2.72;1.10;;;11.20;96.10;;;;;;5007338;28;20188;-69
2021/10/21 04:14:52;;;;;;;3.00;1.10;;;11.10;96.40;;;;;;5024400;28;20117;-69
2021/10/21 04:17:19;;;;;;;4.03;1.40;;;11.00;96.30;;;;;;5007629;28;20459;-68
2021/10/21 04:19:46;;;;;;;4.75;1.50;;;11.00;95.80;;;;;;5014301;28;20107;-64
2021/10/21 04:22:11;;;;;;;5.65;1.50;;;11.00;96.20;;;;;;5008899;28;20137;-64
2021/10/21 04:24:37;;;;;;;3.30;1.80;;;11.10;96.10;;;;;;5009697;28;20230;-64
2021/10/21 04:27:03;;;;;;;3.67;2.08;;;11.00;96.80;;;;;;5014190;27;20090;-65
2021/10/21 04:29:29;;;;;;;3.38;1.75;;;11.00;97.00;;;;;;5013245;28;20403;-66
2021/10/21 04:31:55;;;;;;;6.95;2.55;;;11.10;97.00;;;;;;5032062;27;20219;-65
2021/10/21 04:34:20;;;;;;;6.97;2.40;;;11.30;96.60;;;;;;5013861;28;20026;-65
2021/10/21 04:36:46;;;;;;;6.15;2.30;;;11.50;96.20;;;;;;5010999;28;20026;-65
2021/10/21 04:39:11;;;;;;;3.97;1.90;;;11.50;96.00;;;;;;5009021;28;20049;-66
2021/10/21 04:41:37;;;;;;;4.78;2.03;;;11.60;96.00;;;;;;5025200;28;20021;-65
2021/10/21 04:44:03;;;;;;;3.92;2.42;;;11.60;95.80;;;;;;5016096;28;20495;-65
2021/10/21 04:46:28;;;;;;;4.65;2.33;;;11.60;96.00;;;;;;5015428;28;20022;-65
2021/10/21 04:48:54;;;;;;;5.32;2.28;;;11.60;96.20;;;;;;5014269;28;20094;-65
2021/10/21 04:51:20;;;;;;;6.20;2.33;;;11.60;96.30;;;;;;5015568;28;20101;-65
2021/10/21 04:53:45;;;;;;;8.93;2.15;;;11.60;96.30;;;;;;5016503;28;20333;-66
2021/10/21 04:56:12;;;;;;;4.88;2.20;;;11.70;95.60;;;;;;5012406;28;20021;-65
2021/10/21 04:58:38;;;;;;;5.50;1.95;;;11.80;94.50;;;;;;5013629;28;20492;-65
2021/10/21 05:01:04;;;;;;;3.92;1.80;;;11.80;94.40;;;;;;5007018;28;20029;-65
2021/10/21 05:03:29;;;;;;;3.92;1.73;;;11.90;92.80;;;;;;5015615;28;20454;-62
2021/10/21 05:05:55;;;;;;;3.88;1.42;;;11.80;92.90;;;;;;5025191;27;20113;-63
2021/10/21 05:08:20;;;;;;;2.80;1.55;;;11.70;93.10;;;;;;5018307;28;20030;-63
2021/10/21 05:10:46;;;;;;;3.42;1.30;;;11.80;91.70;;;;;;5029952;28;20056;-63
2021/10/21 05:13:12;;;;;;;2.08;0.98;;;11.80;90.20;;;;;;5016371;28;20036;-63
2021/10/21 05:15:40;;;;;;;2.47;1.08;;;11.80;89.80;;;;;;5011068;28;20038;-63
2021/10/21 05:18:05;;;;;;;1.90;1.00;;;11.60;90.50;;;;;;5033354;27;20056;-62
2021/10/21 05:20:31;;;;;;;3.20;1.05;;;11.50;91.10;;;;;;5013833;27;20492;-62
2021/10/21 05:22:57;;;;;;;3.05;1.20;;;11.50;90.70;;;;;;5016901;27;20037;-63
2021/10/21 05:25:22;;;;;;;2.45;1.05;;;11.60;90.00;;;;;;5021433;28;20057;-63
2021/10/21 05:27:48;;;;;;;3.22;0.90;;;11.50;89.60;;;;;;5016629;28;20125;-62
2021/10/21 05:30:14;;;;;;;3.90;0.75;;;11.50;89.40;;;;;;5021968;28;20101;-62
2021/10/21 05:32:39;;;;;;;6.20;0.90;;;11.50;89.40;;;;;;5017165;28;20053;-64
2021/10/21 05:35:05;;;;;;;1.40;0.82;;;11.50;89.00;;;;;;5016633;28;20117;-64
2021/10/21 05:37:31;;;;;;;10.52;1.00;;;11.50;89.10;;;;;;5016043;27;20124;-64
2021/10/21 05:39:58;;;;;;;2.70;0.85;;;11.40;89.60;;;;;;5020217;28;20092;-62
2021/10/21 05:42:23;;;;;;;3.78;0.95;;;11.40;88.90;;;;;;5030591;27;20049;-62
2021/10/21 05:44:49;;;;;;;3.97;0.95;;;11.50;88.90;;;;;;5020648;28;20393;-62
2021/10/21 05:47:16;;;;;;;3.90;0.93;;;11.40;89.40;;;;;;5025529;28;20026;-61
2021/10/21 05:49:42;;;;;;;2.55;0.80;;;11.30;89.80;;;;;;5018150;28;20037;-62
2021/10/21 05:52:08;;;;;;;3.78;0.80;;;11.40;88.90;;;;;;5025701;28;20025;-63
2021/10/21 05:54:34;;;;;;;3.33;0.93;;;11.40;88.80;;;;;;5018280;28;20032;-62
2021/10/21 05:56:59;;;;;;;2.47;0.70;;;11.30;89.90;;;;;;5016776;28;20512;-63
2021/10/21 05:59:25;;;;;;;3.90;0.80;;;11.40;89.30;;;;;;5021055;28;20045;-63
2021/10/21 06:01:50;;;;;;;2.15;1.00;;;11.30;89.90;;;;;;5016095;28;20573;-63
2021/10/21 06:04:16;;;;;;;6.18;1.05;;;11.10;91.10;;;;;;5021255;28;20077;-63
2021/10/21 06:06:42;;;;;;;2.63;0.75;;;11.10;91.70;;;;;;5028305;28;20037;-64
2021/10/21 06:09:08;;;;;;;2.92;0.70;;;11.20;91.50;;;;;;5022361;28;20489;-64
2021/10/21 06:11:37;;;;;;;4.22;1.20;;;11.10;92.40;;;;;;5019379;27;20029;-62
2021/10/21 06:14:05;;;;;;;2.47;1.00;;;11.10;93.00;;;;;;5026065;28;20033;-63
2021/10/21 06:16:31;;;;;;;2.90;1.25;;;11.00;94.00;;;;;;5014475;28;20034;-62
2021/10/21 06:18:57;;;;;;;3.63;0.98;;;10.90;94.40;;;;;;5016379;28;20170;-63
2021/10/21 06:21:23;;;;;;;3.60;1.10;;;10.80;94.90;;;;;;5021771;28;20391;-64
2021/10/21 06:23:50;;;;;;;3.00;1.00;;;10.80;95.30;;;;;;5039797;27;20044;-62
2021/10/21 06:26:17;;;;;;;3.58;1.50;;;10.70;95.60;;;;;;5018720;28;20476;-62
2021/10/21 06:28:46;;;;;;;5.40;1.60;;;10.70;95.60;;;;;;5015870;28;20116;-63
2021/10/21 06:31:12;;;;;;;5.93;1.30;;;10.70;95.90;;;;;;5018062;28;20060;-63
2021/10/21 06:33:38;;;;;;;11.48;1.60;;;10.70;95.70;;;;;;5015260;28;20105;-64
2021/10/21 06:36:04;;;;;;;5.05;1.55;;;10.70;96.00;;;;;;5020630;28;20048;-63
2021/10/21 06:38:30;;;;;;;8.18;2.05;;;10.70;96.00;;;;;;5022670;28;20143;-62
2021/10/21 06:40:56;;;;;;;3.83;1.75;;;10.70;96.40;;;;;;5015527;28;20132;-63
2021/10/21 06:43:21;;;;;;;11.77;1.90;;;10.70;96.00;;;;;;5017252;28;20318;-62
2021/10/21 06:45:47;;;;;;;4.90;1.83;;;10.70;96.30;;;;;;5036029;27;20084;-62
2021/10/21 06:48:12;;;;;;;5.03;2.20;;;10.70;96.70;;;;;;5019012;28;20029;-64
2021/10/21 06:50:38;;;;;;;8.07;2.05;;;10.70;96.60;;;;;;5018858;28;20029;-63
2021/10/21 06:53:03;;;;;;;1.63;1.30;;;10.80;96.30;;;;;;5018601;28;20041;-63
2021/10/21 06:55:29;;;;;;;6.70;2.15;;;10.70;96.40;;;;;;5015027;28;20455;-64
2021/10/21 06:57:57;;;;;;;6.85;2.00;;;10.60;96.80;;;;;;5011294;28;20048;-62
2021/10/21 07:00:24;;;;;;;4.88;2.00;;;10.60;97.20;;;;;;5021612;28;20026;-62
2021/10/21 07:02:50;;;;;;;6.15;2.42;;;10.60;97.30;;;;;;5020065;27;20034;-62
2021/10/21 07:05:17;;;;;;;4.40;2.03;;;10.60;97.50;;;;;;5015912;28;20112;-64
2021/10/21 07:07:43;;;;;;;6.63;2.30;;;10.50;97.60;;;;;;5017303;28;20109;-63
2021/10/21 07:10:10;;;;;;;8.25;2.63;;;10.60;97.80;;;;;;5018810;28;20061;-63
2021/10/21 07:12:36;;;;;;;7.28;2.70;;;10.50;98.00;;;;;;5014364;28;20029;-63
2021/10/21 07:15:04;;;;;;;3.00;2.00;;;10.50;98.10;;;;;;5014050;28;20516;-64
2021/10/21 07:17:30;;;;;;;5.38;2.17;;;10.50;98.10;;;;;;5021631;28;20368;-63
2021/10/21 07:19:56;;;;;;;7.47;2.25;;;10.50;98.20;;;;;;5014326;28;20052;-64
2021/10/21 07:22:21;;;;;;;2.60;1.50;;;10.50;98.10;;;;;;5012221;28;20244;-63
2021/10/21 07:24:47;;;;;;;2.03;0.90;;;10.50;97.20;;;;;;5014695;28;20038;-63
2021/10/21 07:27:13;;;;;;;6.90;1.08;;;10.40;96.10;;;;;;5011089;28;20094;-64
2021/10/21 07:29:39;;;;;;;3.10;0.63;;;10.40;95.70;;;;;;5022468;28;20064;-62
2021/10/21 07:32:05;;;;;;;1.50;0.50;;;10.30;93.50;;;;;;5013143;27;20037;-63
2021/10/21 07:34:30;;;;;;;0.98;0.60;;;10.30;93.80;;;;;;5018744;28;20030;-61
2021/10/21 07:36:58;;;;;;;1.77;0.60;;;10.30;93.90;;;;;;5013426;28;20029;-64
2021/10/21 07:39:24;;;;;;;1.35;0.80;;;10.10;94.90;;;;;;5015648;28;20033;-62
2021/10/21 07:41:50;;;;;;;0.70;0.50;;;10.10;95.70;;;;;;5020871;28;20049;-62
2021/10/21 07:44:17;;;;;;;1.33;0.60;;;10.00;96.30;;;;;;5011323;28;20192;-63
2021/10/21 07:46:46;;;;;;;3.60;1.05;;;9.90;96.60;;;;;;5014061;28;20143;-63
2021/10/21 07:49:12;;;;;;;0.65;0.35;;;9.80;96.70;;;;;;5017716;28;20029;-63
2021/10/21 07:51:38;;;;;;;0.90;0.40;;;9.80;96.90;;;;;;5016537;28;20136;-63
2021/10/21 07:54:04;;;;;;;1.63;0.65;;;9.80;96.90;;;;;;5032427;28;20125;-63
2021/10/21 07:56:30;;;;;;;0.75;0.40;;;9.70;97.20;;;;;;5017797;28;20090;-62
2021/10/21 07:58:56;;;;;;;0.47;0.40;;;9.80;97.10;;;;;;5062705;28;20126;-62
2021/10/21 08:01:22;;;;;;;0.88;0.45;;;9.80;97.00;;;;;;5041683;28;20178;-64
2021/10/21 08:03:47;;;;;;;0.93;0.50;;;9.80;97.30;;;;;;5016056;28;20380;-64
2021/10/21 08:06:13;;;;;;;0.40;0.40;;;9.80;97.10;;;;;;5019701;28;20318;-64
2021/10/21 08:08:39;;;;;;;1.13;0.65;;;9.80;96.90;;;;;;5014222;28;20078;-64
2021/10/21 08:11:05;;;;;;;8.90;0.90;;;9.80;97.00;;;;;;5025300;28;20225;-61
2021/10/21 08:13:30;;;;;;;2.70;0.40;;;9.80;96.40;;;;;;5021626;28;20048;-64
2021/10/21 08:15:59;;;;;;;1.98;0.60;;;9.80;96.70;;;;;;5017088;28;20030;-64
2021/10/21 08:18:25;;;;;;;2.22;0.40;;;9.80;96.20;;;;;;5018456;28;20472;-64
2021/10/21 08:20:51;;;;;;;0.93;0.40;;;9.80;95.60;;;;;;5015463;28;20125;-63
2021/10/21 08:23:17;;;;;;;1.15;0.35;;;9.80;95.40;;;;;;5012786;28;20053;-63
2021/10/21 08:25:43;;;;;;;2.17;0.50;;;9.80;95.40;;;;;;5053679;28;20045;-64
2021/10/21 08:28:09;;;;;;;3.05;0.60;;;9.70;95.40;;;;;;5028725;28;20487;-64
2021/10/21 08:30:38;;;;;;;1.55;0.30;;;9.70;95.50;;;;;;5014762;28;20033;-63
2021/10/21 08:33:04;;;;;;;5.13;0.50;;;9.70;95.20;;;;;;5012080;28;20426;-64
2021/10/21 08:35:30;;;;;;;3.67;0.60;;;9.70;95.60;;;;;;5012278;28;20376;-64
2021/10/21 08:38:00;;;;;;;2.97;0.45;;;9.60;95.00;;;;;;5018095;28;20058;-63
2021/10/21 08:40:27;;;;;;;4.25;0.60;;;9.60;94.80;;;;;;5019269;28;20041;-64
2021/10/21 08:42:52;;;;;;;3.55;0.70;;;9.60;95.00;;;;;;5036264;27;20041;-64
2021/10/21 08:45:18;;;;;;;3.83;0.60;;;9.60;95.30;;;;;;5036575;27;20033;-64
2021/10/21 08:47:49;;;;;;;4.55;1.00;;;9.60;95.50;;;;;;5012549;28;20025;-64
2021/10/21 08:50:18;;;;;;;3.65;0.90;;;9.60;95.40;;;;;;5022022;28;20048;-64
2021/10/21 08:52:44;;;;;;;7.72;1.02;;;9.60;95.50;;;;;;5016003;28;20423;-63
2021/10/21 08:55:11;;;;;;;3.17;0.65;;;9.60;96.00;;;;;;5018561;28;20059;-64
2021/10/21 08:57:37;;;;;;;6.10;0.65;;;9.60;96.10;;;;;;5021376;28;20060;-64
2021/10/21 09:00:04;;;;;;;5.20;0.93;;;9.60;95.90;;;;;;5017771;28;20022;-64
2021/10/21 09:02:56;;;;;;;6.20;0.90;;;9.70;96.30;;;;;;5025327;27;20025;-62
2021/10/21 09:08:12;;;;;;;8.88;1.15;;;9.70;96.50;;;;;;5011499;28;20022;-63
2021/10/21 09:10:47;;;;;;;9.30;1.35;;;9.80;96.80;;;;;;5016455;28;20085;-62
2021/10/21 09:13:22;;;;;;;6.45;1.25;;;9.80;96.40;;;;;;5011752;28;20381;-63
2021/10/21 09:15:54;;;;;;;2.58;1.10;;;9.80;96.40;;;;;;5018375;28;20091;-64
2021/10/21 09:18:21;;;;;;;5.75;1.30;;;9.90;96.40;;;;;;5022573;28;20051;-64
2021/10/21 09:20:47;;;;;;;12.70;1.40;;;9.90;96.60;;;;;;5018605;28;20040;-64
2021/10/21 09:23:16;;;;;;;3.67;0.60;;;10.00;96.50;;;;;;5018197;28;20038;-63
2021/10/21 09:25:43;;;;;;;8.32;1.33;;;9.90;96.30;;;;;;5020264;28;20044;-64
2021/10/21 09:28:38;;;;;;;6.07;1.15;;;9.90;96.30;;;;;;5015507;28;20036;-62
2021/10/21 09:31:09;;;;;;;6.82;1.30;;;9.90;96.40;;;;;;5005011;28;20056;-64
2021/10/21 09:33:51;;;;;;;6.78;0.95;;;9.90;96.70;;;;;;5018667;28;20094;-64
2021/10/21 09:36:22;;;;;;;7.45;0.88;;;9.80;96.50;;;;;;5017787;28;20040;-64
2021/10/21 09:38:52;;;;;;;2.53;0.57;;;9.80;96.40;;;;;;5028342;28;20032;-64
2021/10/21 09:41:21;;;;;;;7.57;0.88;;;9.80;96.80;;;;;;5017376;28;20021;-63
2021/10/21 09:43:48;;;;;;;7.15;0.93;;;9.80;97.00;;;;;;5018703;28;21292;-63
2021/10/21 09:46:33;;;;;;;9.45;1.13;;;9.70;97.00;;;;;;5015688;28;20113;-62
2021/10/21 09:49:21;;;;;;;7.15;1.02;;;9.80;97.20;;;;;;5020539;28;20071;-63
2021/10/21 09:51:48;;;;;;;4.57;1.10;;;9.80;97.00;;;;;;5008701;28;20037;-63
2021/10/21 09:54:14;;;;;;;2.88;0.80;;;9.80;97.20;;;;;;5017137;28;20066;-64
2021/10/21 09:57:03;;;;;;;6.78;1.02;;;9.90;97.20;;;;;;5012170;28;20076;-63
2021/10/21 09:59:32;;;;;;;6.28;0.98;;;9.80;97.20;;;;;;5013409;28;20034;-64
2021/10/21 10:02:15;;;;;;;8.65;1.52;;;9.90;97.30;;;;;;5025512;27;20026;-64
2021/10/21 10:04:47;;;;;;;5.78;0.82;;;10.00;97.10;;;;;;5034265;27;20030;-64
2021/10/21 10:07:13;;;;;;;4.38;0.90;;;10.10;96.80;;;;;;5010806;28;20100;-63
2021/10/21 10:09:39;;;;;;;8.23;1.27;;;10.00;96.30;;;;;;5020687;27;20264;-64
2021/10/21 10:12:08;;;;;;;4.78;0.95;;;10.00;97.00;;;;;;5021600;27;20498;-63
2021/10/21 10:14:39;;;;;;;4.20;0.85;;;9.90;97.10;;;;;;5020366;28;20429;-64
2021/10/21 10:17:05;;;;;;;3.00;1.00;;;9.90;97.40;;;;;;5026403;28;20285;-64
2021/10/21 10:19:32;;;;;;;6.25;1.02;;;9.90;97.40;;;;;;5015753;28;20040;-64
2021/10/21 10:22:01;;;;;;;6.68;1.30;;;9.90;97.60;;;;;;5011796;28;20036;-62
2021/10/21 10:24:32;;;;;;;3.78;0.90;;;10.00;97.60;;;;;;5018292;28;20101;-63
2021/10/21 10:26:58;;;;;;;2.30;0.57;;;10.00;97.30;;;;;;5022981;27;20052;-63
2021/10/21 10:29:35;;;;;;;6.97;0.75;;;10.00;96.70;;;;;;5010994;28;20041;-62
2021/10/21 10:32:06;;;;;;;1.90;0.45;;;10.10;96.60;;;;;;5014632;28;20025;-64
2021/10/21 10:34:32;;;;;;;2.70;0.80;;;10.10;96.20;;;;;;5021997;28;20507;-63
2021/10/21 10:37:12;;;;;;;2.85;0.88;;;10.10;96.10;;;;;;5016515;28;20029;-64
2021/10/21 10:39:53;;;;;;;4.78;0.85;;;10.10;96.60;;;;;;5022023;28;20089;-65
2021/10/21 10:42:36;;;;;;;2.17;1.00;;;10.10;96.90;;;;;;5015160;28;20038;-62
2021/10/21 10:45:05;;;;;;;2.55;0.80;;;10.10;97.00;;;;;;5032556;27;20193;-64
2021/10/21 10:47:46;;;;;;;5.15;0.70;;;10.00;96.70;;;;;;5019939;28;20066;-64
2021/10/21 10:50:16;;;;;;;5.95;1.20;;;10.00;96.70;;;;;;5017708;28;20052;-64
2021/10/21 10:52:48;;;;;;;4.78;0.68;;;10.10;96.90;;;;;;5011608;28;20038;-64
2021/10/21 10:55:18;;;;;;;7.60;1.10;;;10.30;96.80;;;;;;5017718;28;20029;-62
2021/10/21 10:57:44;;;;;;;5.20;1.00;;;10.60;96.40;;;;;;5012609;28;20057;-64
2021/10/21 11:00:45;;;;;;;6.00;0.90;;;10.90;96.00;;;;;;5030951;27;20074;-62
2021/10/21 11:03:12;;;;;;;3.90;0.80;;;11.00;95.90;;;;;;5012712;28;20143;-64
2021/10/21 11:05:44;;;;;;;5.95;1.02;;;11.00;95.70;;;;;;5018041;28;20389;-63
2021/10/21 11:08:11;;;;;;;8.32;1.20;;;10.80;94.70;;;;;;5020805;28;20110;-64
2021/10/21 11:10:42;;;;;;;13.90;1.27;;;10.60;95.00;;;;;;5016363;28;20041;-62
2021/10/21 11:13:41;;;;;;;6.85;1.23;;;10.60;95.10;;;;;;5018583;28;20033;-64
2021/10/21 11:16:38;;;;;;;5.93;1.10;;;10.70;95.40;;;;;;4993173;28;20666;-64
2021/10/21 11:19:04;;;;;;;7.03;1.60;;;10.60;94.00;;;;;;5020366;27;20141;-64
2021/10/21 11:22:05;;;;;;;4.90;1.08;;;10.60;94.40;;;;;;5012882;28;20033;-61
2021/10/21 11:24:47;;;;;;;5.32;1.13;;;10.60;94.10;;;;;;4939078;28;20158;-64
2021/10/21 11:27:19;;;;;;;9.00;1.40;;;10.50;94.00;;;;;;5008398;28;20048;-64
2021/10/21 11:29:47;;;;;;;5.15;0.93;;;10.70;94.20;;;;;;5011186;28;20505;-64
2021/10/21 11:32:14;;;;;;;7.97;1.35;;;10.70;94.20;;;;;;5007646;28;20044;-64
2021/10/21 11:34:39;;;;;;;3.53;1.05;;;10.80;94.60;;;;;;5012509;28;20564;-63
2021/10/21 11:37:05;;;;;;;11.30;1.77;;;10.80;94.50;;;;;;5018040;28;20040;-63
2021/10/21 11:39:36;;;;;;;8.82;1.15;;;10.70;94.60;;;;;;5021304;28;20029;-62
2021/10/21 11:42:02;;;;;;;;;;;10.60;95.00;;;;;;5013139;28;20029;-64
2021/10/21 11:44:28;;;;;;;7.70;1.17;;;10.30;95.80;;;;;;5016164;28;19909;-65
2021/10/21 11:46:58;;;;;;;7.20;1.13;;;10.20;96.30;;;;;;5013952;28;20037;-65
2021/10/21 11:49:43;;;;;;;7.23;1.17;;;10.10;96.50;;;;;;5018785;28;20034;-64
2021/10/21 11:52:11;;;;;;;10.23;1.48;;;9.90;94.90;;;;;;5015208;28;20090;-64
2021/10/21 11:54:38;;;;;;;9.48;1.20;;;9.90;96.60;;;;;;5015170;28;20089;-63
2021/10/21 11:57:05;;;;;;;5.32;1.30;;;9.90;97.10;;;;;;5014962;28;20539;-62
2021/10/21 11:59:38;;;;;;;6.75;1.50;;;10.00;97.00;;;;;;5012236;28;20087;-64
2021/10/21 12:02:12;;;;;;;6.43;1.58;;;9.90;96.90;;;;;;5015844;28;20666;-64
2021/10/21 12:04:39;;;;;;;7.47;0.95;;;9.90;95.90;;;;;;5015786;28;20029;-63
2021/10/21 12:07:06;;;;;;;5.53;0.95;;;9.90;95.40;;;;;;5014040;28;20128;-62
2021/10/21 12:09:33;;;;;;;9.32;1.10;;;9.90;94.30;;;;;;5024473;28;20420;-64
2021/10/21 12:12:12;;;;;;;11.93;1.83;;;9.90;94.10;;;;;;5013900;28;20036;-63
2021/10/21 12:14:40;;;;;;;6.28;0.90;;;9.80;92.80;;;;;;5015637;28;20113;-64
2021/10/21 12:17:07;;;;;;;7.38;1.00;;;9.80;92.80;;;;;;5019246;28;20551;-64
2021/10/21 12:19:32;;;;;;;8.35;1.13;;;9.80;92.90;;;;;;5022902;28;20120;-64
2021/10/21 12:22:14;;;;;;;6.18;0.90;;;9.80;94.20;;;;;;5016377;28;20177;-64
2021/10/21 12:24:44;;;;;;;6.32;1.05;;;9.80;94.10;;;;;;5016379;28;20061;-63
2021/10/21 12:27:10;;;;;;;9.40;1.10;;;9.80;94.00;;;;;;5021642;28;20051;-63
2021/10/21 12:29:45;;;;;;;8.82;1.02;;;9.70;94.30;;;;;;5020755;28;20413;-62
2021/10/21 12:32:17;;;;;;;13.23;1.42;;;9.60;94.80;;;;;;5016938;28;20124;-63
2021/10/21 12:34:44;;;;;;;5.13;1.05;;;9.60;95.20;;;;;;5022611;28;20030;-62
2021/10/21 12:37:13;;;;;;;5.88;1.10;;;9.50;95.50;;;;;;5023566;28;20056;-63
2021/10/21 12:39:39;;;;;;;4.70;0.85;;;9.60;95.90;;;;;;5025568;28;20064;-61
2021/10/21 12:42:07;;;;;;;4.07;0.68;;;9.50;95.70;;;;;;5012460;27;20049;-63
2021/10/21 12:44:40;;;;;;;9.30;1.15;;;9.50;95.60;;;;;;5025927;27;20433;-63
2021/10/21 12:47:08;;;;;;;7.45;1.38;;;9.50;95.90;;;;;;5016074;28;20021;-62
2021/10/21 12:49:35;;;;;;;5.57;1.20;;;9.50;96.10;;;;;;5049260;27;20031;-63
2021/10/21 12:52:29;;;;;;;8.18;1.15;;;9.40;96.10;;;;;;5014210;28;20356;-64
2021/10/21 12:55:10;;;;;;;7.10;1.10;;;9.40;96.30;;;;;;5017481;28;20102;-63